CSB821 KCVG-KGSO
Flight info
| Callsign | CSB821 |
|---|---|
| Flight time | 0h 51m |
| Altitude | 37000 |
| Route | KENLN6 SHIPR LOGIC TRENT SLINK OTONE TRAKS4 |
| Aircraft | B763/H-SDE3FGHIJ2J3J5M3RWXY/LB1D1 |
Departure
| Time | 2026-05-06 07:37 |
|---|---|
| Airport | Cincinnati Northern Kentucky International Airport (KCVG) |
Arrival
| Time | 2026-05-06 08:28 |
|---|---|
| Airport | Piedmont Triad International Airport (KGSO) |
| Time | Latitude | Longitude | Altitude | Speed | Heading |
|---|---|---|---|---|---|
| 2026-05-06 07:19 | 39.03288 | -84.65232 | 887 ft | 0 kts | 297° |
| 2026-05-06 07:25 | 39.03288 | -84.65231 | 887 ft | 0 kts | 297° |
| 2026-05-06 07:25 | 39.03286 | -84.65225 | 887 ft | 2 kts | 297° |
| 2026-05-06 07:25 | 39.03279 | -84.65208 | 887 ft | 2 kts | 297° |
| 2026-05-06 07:26 | 39.03272 | -84.65191 | 888 ft | 2 kts | 301° |
| 2026-05-06 07:26 | 39.03262 | -84.65176 | 888 ft | 2 kts | 320° |
| 2026-05-06 07:26 | 39.03250 | -84.65166 | 888 ft | 2 kts | 336° |
| 2026-05-06 07:26 | 39.03236 | -84.65160 | 889 ft | 2 kts | 351° |
| 2026-05-06 07:27 | 39.03227 | -84.65159 | 889 ft | 1 kts | 0° |
| 2026-05-06 07:28 | 39.03230 | -84.65159 | 889 ft | 2 kts | 0° |
| 2026-05-06 07:29 | 39.03263 | -84.65158 | 888 ft | 7 kts | 0° |
| 2026-05-06 07:29 | 39.03329 | -84.65157 | 887 ft | 11 kts | 0° |
| 2026-05-06 07:29 | 39.03410 | -84.65157 | 886 ft | 10 kts | 360° |
| 2026-05-06 07:29 | 39.03481 | -84.65157 | 885 ft | 10 kts | 360° |
| 2026-05-06 07:30 | 39.03548 | -84.65156 | 885 ft | 7 kts | 9° |
| 2026-05-06 07:30 | 39.03572 | -84.65116 | 885 ft | 5 kts | 80° |
| 2026-05-06 07:30 | 39.03572 | -84.65066 | 886 ft | 5 kts | 90° |
| 2026-05-06 07:30 | 39.03574 | -84.65012 | 887 ft | 5 kts | 75° |
| 2026-05-06 07:31 | 39.03596 | -84.64993 | 887 ft | 4 kts | 6° |
| 2026-05-06 07:31 | 39.03640 | -84.64992 | 888 ft | 8 kts | 360° |
| 2026-05-06 07:31 | 39.03703 | -84.64992 | 888 ft | 9 kts | 0° |
| 2026-05-06 07:31 | 39.03777 | -84.64992 | 889 ft | 11 kts | 0° |
| 2026-05-06 07:32 | 39.03859 | -84.64991 | 890 ft | 12 kts | 0° |
| 2026-05-06 07:32 | 39.03945 | -84.64991 | 892 ft | 12 kts | 0° |
| 2026-05-06 07:32 | 39.04032 | -84.64990 | 892 ft | 12 kts | 360° |
| 2026-05-06 07:32 | 39.04120 | -84.64990 | 894 ft | 12 kts | 360° |
| 2026-05-06 07:33 | 39.04198 | -84.64990 | 894 ft | 10 kts | 360° |
| 2026-05-06 07:33 | 39.04275 | -84.64990 | 895 ft | 11 kts | 360° |
| 2026-05-06 07:33 | 39.04354 | -84.64990 | 896 ft | 11 kts | 0° |
| 2026-05-06 07:33 | 39.04436 | -84.64992 | 896 ft | 9 kts | 342° |
| 2026-05-06 07:34 | 39.04461 | -84.65047 | 895 ft | 8 kts | 272° |
| 2026-05-06 07:34 | 39.04462 | -84.65074 | 895 ft | 9 kts | 271° |
| 2026-05-06 07:34 | 39.04463 | -84.65171 | 892 ft | 12 kts | 271° |
| 2026-05-06 07:34 | 39.04465 | -84.65270 | 889 ft | 6 kts | 277° |
| 2026-05-06 07:35 | 39.04496 | -84.65298 | 889 ft | 6 kts | 356° |
| 2026-05-06 07:35 | 39.04551 | -84.65298 | 889 ft | 8 kts | 0° |
| 2026-05-06 07:35 | 39.04607 | -84.65300 | 889 ft | 5 kts | 344° |
| 2026-05-06 07:35 | 39.04626 | -84.65341 | 888 ft | 6 kts | 274° |
| 2026-05-06 07:36 | 39.04626 | -84.65353 | 888 ft | 5 kts | 271° |
| 2026-05-06 07:36 | 39.04628 | -84.65673 | 879 ft | 67 kts | 270° |
| 2026-05-06 07:36 | 39.04629 | -84.66544 | 867 ft | 124 kts | 271° |
| 2026-05-06 07:36 | 39.04631 | -84.67859 | 882 ft | 169 kts | 271° |
| 2026-05-06 07:37 | 39.04603 | -84.69434 | 1381 ft | 179 kts | 275° |
| 2026-05-06 07:37 | 39.04598 | -84.71046 | 2078 ft | 185 kts | 277° |
| 2026-05-06 07:37 | 39.04616 | -84.72750 | 2550 ft | 203 kts | 275° |
| 2026-05-06 07:37 | 39.04619 | -84.74683 | 3016 ft | 225 kts | 272° |
| 2026-05-06 07:38 | 39.04617 | -84.76756 | 3671 ft | 239 kts | 272° |
| 2026-05-06 07:38 | 39.04615 | -84.78889 | 4485 ft | 247 kts | 270° |
| 2026-05-06 07:38 | 39.04611 | -84.81133 | 5349 ft | 255 kts | 269° |
| 2026-05-06 07:38 | 39.04608 | -84.83362 | 6493 ft | 251 kts | 268° |
| 2026-05-06 07:39 | 39.04602 | -84.85557 | 7609 ft | 248 kts | 266° |
| 2026-05-06 07:39 | 39.04224 | -84.87687 | 8400 ft | 254 kts | 242° |
| 2026-05-06 07:39 | 39.02997 | -84.89333 | 9360 ft | 263 kts | 213° |
| 2026-05-06 07:39 | 39.01237 | -84.90002 | 10282 ft | 278 kts | 188° |
| 2026-05-06 07:40 | 38.99231 | -84.89638 | 10823 ft | 307 kts | 171° |
| 2026-05-06 07:40 | 38.97149 | -84.88721 | 11277 ft | 330 kts | 168° |
| 2026-05-06 07:40 | 38.94911 | -84.87743 | 11849 ft | 345 kts | 169° |
| 2026-05-06 07:40 | 38.92564 | -84.86742 | 12332 ft | 364 kts | 169° |
| 2026-05-06 07:41 | 38.90098 | -84.85706 | 12814 ft | 382 kts | 169° |
| 2026-05-06 07:41 | 38.87551 | -84.84637 | 13520 ft | 392 kts | 169° |
| 2026-05-06 07:41 | 38.84936 | -84.83549 | 14447 ft | 394 kts | 169° |
| 2026-05-06 07:41 | 38.82320 | -84.82465 | 15070 ft | 404 kts | 169° |
| 2026-05-06 07:42 | 38.79625 | -84.81340 | 16024 ft | 403 kts | 169° |
| 2026-05-06 07:42 | 38.76962 | -84.80241 | 16772 ft | 408 kts | 170° |
| 2026-05-06 07:42 | 38.74233 | -84.79120 | 17555 ft | 415 kts | 170° |
| 2026-05-06 07:42 | 38.71478 | -84.77982 | 18337 ft | 420 kts | 170° |
| 2026-05-06 07:43 | 38.68703 | -84.76835 | 19212 ft | 423 kts | 171° |
| 2026-05-06 07:43 | 38.65881 | -84.75675 | 19966 ft | 428 kts | 171° |
| 2026-05-06 07:43 | 38.63065 | -84.74515 | 20750 ft | 431 kts | 171° |
| 2026-05-06 07:43 | 38.60177 | -84.73329 | 21387 ft | 438 kts | 171° |
| 2026-05-06 07:44 | 38.57301 | -84.72147 | 22175 ft | 439 kts | 171° |
| 2026-05-06 07:44 | 38.54356 | -84.70940 | 22720 ft | 446 kts | 171° |
| 2026-05-06 07:44 | 38.51416 | -84.69732 | 23478 ft | 448 kts | 171° |
| 2026-05-06 07:44 | 38.48423 | -84.68510 | 24176 ft | 455 kts | 171° |
| 2026-05-06 07:45 | 38.45399 | -84.67272 | 24683 ft | 466 kts | 172° |
| 2026-05-06 07:45 | 38.42324 | -84.66013 | 25559 ft | 469 kts | 172° |
| 2026-05-06 07:45 | 38.39154 | -84.64725 | 26088 ft | 478 kts | 171° |
| 2026-05-06 07:45 | 38.35970 | -84.63421 | 26681 ft | 486 kts | 172° |
| 2026-05-06 07:46 | 38.32764 | -84.62113 | 27498 ft | 488 kts | 172° |
| 2026-05-06 07:46 | 38.29531 | -84.60796 | 27987 ft | 496 kts | 172° |
| 2026-05-06 07:46 | 38.26205 | -84.59441 | 28825 ft | 496 kts | 172° |
| 2026-05-06 07:46 | 38.22911 | -84.58102 | 29370 ft | 501 kts | 172° |
| 2026-05-06 07:47 | 38.19561 | -84.56742 | 29924 ft | 506 kts | 172° |
| 2026-05-06 07:47 | 38.16300 | -84.55405 | 31136 ft | 495 kts | 172° |
| 2026-05-06 07:47 | 38.13008 | -84.54077 | 31626 ft | 499 kts | 173° |
| 2026-05-06 07:47 | 38.09716 | -84.52735 | 32572 ft | 492 kts | 173° |
| 2026-05-06 07:48 | 38.06526 | -84.51273 | 33307 ft | 500 kts | 167° |
| 2026-05-06 07:48 | 38.03409 | -84.49200 | 33888 ft | 516 kts | 158° |
| 2026-05-06 07:48 | 38.00470 | -84.46491 | 34538 ft | 530 kts | 149° |
| 2026-05-06 07:48 | 37.97761 | -84.43200 | 34913 ft | 548 kts | 139° |
| 2026-05-06 07:49 | 37.95403 | -84.39359 | 35722 ft | 556 kts | 130° |
| 2026-05-06 07:49 | 37.93451 | -84.35150 | 36137 ft | 568 kts | 121° |
| 2026-05-06 07:49 | 37.91889 | -84.30460 | 36491 ft | 578 kts | 112° |
| 2026-05-06 07:49 | 37.90843 | -84.25608 | 36864 ft | 580 kts | 103° |
| 2026-05-06 07:50 | 37.89914 | -84.15382 | 36814 ft | 585 kts | 98° |
| 2026-05-06 07:50 | 37.88545 | -84.05364 | 36811 ft | 576 kts | 104° |
| 2026-05-06 07:51 | 37.86826 | -83.95483 | 36806 ft | 581 kts | 105° |
| 2026-05-06 07:51 | 37.84971 | -83.85516 | 36810 ft | 579 kts | 105° |
| 2026-05-06 07:52 | 37.83086 | -83.75659 | 36816 ft | 578 kts | 105° |
| 2026-05-06 07:52 | 37.81193 | -83.65808 | 36817 ft | 578 kts | 106° |
| 2026-05-06 07:53 | 37.79279 | -83.55964 | 36816 ft | 578 kts | 105° |
| 2026-05-06 07:53 | 37.77359 | -83.46094 | 36827 ft | 576 kts | 105° |
| 2026-05-06 07:54 | 37.75447 | -83.36324 | 36850 ft | 577 kts | 105° |
| 2026-05-06 07:54 | 37.73500 | -83.26429 | 36831 ft | 574 kts | 106° |
| 2026-05-06 07:55 | 37.71581 | -83.16718 | 36838 ft | 574 kts | 105° |
| 2026-05-06 07:55 | 37.69632 | -83.06902 | 36845 ft | 577 kts | 105° |
| 2026-05-06 07:56 | 37.67680 | -82.97113 | 36844 ft | 574 kts | 106° |
| 2026-05-06 07:56 | 37.65730 | -82.87395 | 36847 ft | 574 kts | 105° |
| 2026-05-06 07:57 | 37.63761 | -82.77618 | 36855 ft | 576 kts | 105° |
| 2026-05-06 07:57 | 37.61789 | -82.67852 | 36859 ft | 575 kts | 106° |
| 2026-05-06 07:58 | 37.59803 | -82.58081 | 36866 ft | 574 kts | 105° |
| 2026-05-06 07:58 | 37.57810 | -82.48325 | 36875 ft | 574 kts | 105° |
| 2026-05-06 07:59 | 37.55809 | -82.38556 | 36874 ft | 574 kts | 105° |
| 2026-05-06 07:59 | 37.53804 | -82.28826 | 36861 ft | 575 kts | 106° |
| 2026-05-06 08:00 | 37.51807 | -82.19177 | 36872 ft | 573 kts | 105° |
| 2026-05-06 08:00 | 37.49773 | -82.09392 | 36867 ft | 577 kts | 106° |
| 2026-05-06 08:01 | 37.47691 | -81.99584 | 36874 ft | 573 kts | 109° |
| 2026-05-06 08:01 | 37.44422 | -81.90487 | 36910 ft | 570 kts | 123° |
| 2026-05-06 08:02 | 37.40485 | -81.81901 | 36904 ft | 570 kts | 124° |
| 2026-05-06 08:02 | 37.36447 | -81.73298 | 36921 ft | 569 kts | 125° |
| 2026-05-06 08:03 | 37.32400 | -81.64780 | 36942 ft | 571 kts | 124° |
| 2026-05-06 08:03 | 37.28340 | -81.56260 | 36932 ft | 570 kts | 123° |
| 2026-05-06 08:04 | 37.23773 | -81.48164 | 36955 ft | 561 kts | 139° |
| 2026-05-06 08:04 | 37.17920 | -81.42043 | 36959 ft | 544 kts | 156° |
| 2026-05-06 08:05 | 37.11435 | -81.37180 | 36966 ft | 544 kts | 158° |
| 2026-05-06 08:05 | 37.04875 | -81.32445 | 36936 ft | 542 kts | 159° |
| 2026-05-06 08:06 | 36.98372 | -81.27825 | 36567 ft | 541 kts | 159° |
| 2026-05-06 08:06 | 36.95118 | -81.25520 | 36272 ft | 532 kts | 159° |
| 2026-05-06 08:06 | 36.91911 | -81.23256 | 35930 ft | 525 kts | 160° |
| 2026-05-06 08:07 | 36.88720 | -81.21010 | 35299 ft | 524 kts | 159° |
| 2026-05-06 08:07 | 36.85547 | -81.18782 | 34692 ft | 522 kts | 159° |
| 2026-05-06 08:07 | 36.82386 | -81.16563 | 34105 ft | 518 kts | 158° |
| 2026-05-06 08:07 | 36.79262 | -81.14374 | 33511 ft | 517 kts | 159° |
| 2026-05-06 08:08 | 36.76127 | -81.12176 | 32955 ft | 515 kts | 158° |
| 2026-05-06 08:08 | 36.72978 | -81.09976 | 32372 ft | 517 kts | 158° |
| 2026-05-06 08:08 | 36.69861 | -81.07796 | 31771 ft | 517 kts | 158° |
| 2026-05-06 08:08 | 36.66743 | -81.05617 | 31181 ft | 515 kts | 158° |
| 2026-05-06 08:09 | 36.63602 | -81.03426 | 30560 ft | 512 kts | 157° |
| 2026-05-06 08:09 | 36.60541 | -81.01290 | 29948 ft | 508 kts | 157° |
| 2026-05-06 08:09 | 36.57456 | -80.99142 | 29320 ft | 504 kts | 158° |
| 2026-05-06 08:09 | 36.54414 | -80.97031 | 28699 ft | 502 kts | 156° |
| 2026-05-06 08:10 | 36.51343 | -80.94900 | 28087 ft | 502 kts | 157° |
| 2026-05-06 08:10 | 36.48347 | -80.92821 | 27496 ft | 496 kts | 156° |
| 2026-05-06 08:10 | 36.45312 | -80.90715 | 26893 ft | 491 kts | 156° |
| 2026-05-06 08:10 | 36.42324 | -80.88646 | 26294 ft | 486 kts | 156° |
| 2026-05-06 08:11 | 36.39391 | -80.86615 | 25707 ft | 480 kts | 156° |
| 2026-05-06 08:11 | 36.36521 | -80.84633 | 25143 ft | 475 kts | 156° |
| 2026-05-06 08:11 | 36.33641 | -80.82642 | 24567 ft | 470 kts | 156° |
| 2026-05-06 08:11 | 36.30798 | -80.80682 | 24005 ft | 465 kts | 156° |
| 2026-05-06 08:12 | 36.27983 | -80.78741 | 23454 ft | 460 kts | 156° |
| 2026-05-06 08:12 | 36.25169 | -80.76802 | 22901 ft | 456 kts | 156° |
| 2026-05-06 08:12 | 36.22408 | -80.74902 | 22364 ft | 451 kts | 155° |
| 2026-05-06 08:12 | 36.19745 | -80.72879 | 21815 ft | 451 kts | 148° |
| 2026-05-06 08:13 | 36.17377 | -80.70351 | 21284 ft | 454 kts | 138° |
| 2026-05-06 08:13 | 36.15351 | -80.67323 | 20756 ft | 454 kts | 127° |
| 2026-05-06 08:13 | 36.13784 | -80.63982 | 20154 ft | 454 kts | 117° |
| 2026-05-06 08:13 | 36.12670 | -80.60306 | 19557 ft | 453 kts | 106° |
| 2026-05-06 08:14 | 36.12047 | -80.56540 | 18993 ft | 450 kts | 99° |
| 2026-05-06 08:14 | 36.11536 | -80.52725 | 18412 ft | 446 kts | 100° |
| 2026-05-06 08:14 | 36.11045 | -80.49000 | 17860 ft | 442 kts | 99° |
| 2026-05-06 08:14 | 36.10558 | -80.45253 | 17331 ft | 437 kts | 99° |
| 2026-05-06 08:15 | 36.10089 | -80.41593 | 16760 ft | 434 kts | 99° |
| 2026-05-06 08:15 | 36.09618 | -80.37910 | 16323 ft | 426 kts | 99° |
| 2026-05-06 08:15 | 36.09233 | -80.34315 | 15665 ft | 426 kts | 94° |
| 2026-05-06 08:15 | 36.09312 | -80.30706 | 15168 ft | 420 kts | 87° |
| 2026-05-06 08:16 | 36.09409 | -80.27080 | 14671 ft | 417 kts | 89° |
| 2026-05-06 08:16 | 36.09530 | -80.23534 | 14257 ft | 410 kts | 85° |
| 2026-05-06 08:16 | 36.10120 | -80.20084 | 13875 ft | 409 kts | 70° |
| 2026-05-06 08:16 | 36.11367 | -80.16966 | 13387 ft | 406 kts | 55° |
| 2026-05-06 08:17 | 36.13148 | -80.14307 | 12792 ft | 400 kts | 45° |
| 2026-05-06 08:17 | 36.15057 | -80.11782 | 12251 ft | 396 kts | 46° |
| 2026-05-06 08:17 | 36.16915 | -80.09307 | 11733 ft | 391 kts | 45° |
| 2026-05-06 08:17 | 36.18770 | -80.06857 | 11186 ft | 388 kts | 45° |
| 2026-05-06 08:18 | 36.20536 | -80.04412 | 10956 ft | 383 kts | 50° |
| 2026-05-06 08:18 | 36.22192 | -80.01836 | 10973 ft | 384 kts | 50° |
| 2026-05-06 08:18 | 36.23886 | -79.99228 | 10973 ft | 386 kts | 50° |
| 2026-05-06 08:18 | 36.25569 | -79.96631 | 10976 ft | 388 kts | 50° |
| 2026-05-06 08:19 | 36.27253 | -79.94034 | 10967 ft | 388 kts | 50° |
| 2026-05-06 08:19 | 36.28941 | -79.91431 | 10890 ft | 375 kts | 50° |
| 2026-05-06 08:19 | 36.30529 | -79.88978 | 10492 ft | 357 kts | 49° |
| 2026-05-06 08:19 | 36.32042 | -79.86643 | 10139 ft | 340 kts | 49° |
| 2026-05-06 08:20 | 36.33486 | -79.84415 | 9819 ft | 325 kts | 50° |
| 2026-05-06 08:20 | 36.34854 | -79.82307 | 9596 ft | 310 kts | 49° |
| 2026-05-06 08:20 | 36.36197 | -79.80238 | 9152 ft | 306 kts | 49° |
| 2026-05-06 08:20 | 36.37529 | -79.78190 | 8666 ft | 302 kts | 49° |
| 2026-05-06 08:21 | 36.38639 | -79.75998 | 8070 ft | 305 kts | 72° |
| 2026-05-06 08:21 | 36.38940 | -79.73458 | 7548 ft | 299 kts | 100° |
| 2026-05-06 08:21 | 36.38352 | -79.71083 | 7041 ft | 286 kts | 128° |
| 2026-05-06 08:21 | 36.37026 | -79.69355 | 6621 ft | 267 kts | 157° |
| 2026-05-06 08:22 | 36.35345 | -79.68679 | 6250 ft | 249 kts | 184° |
| 2026-05-06 08:22 | 36.33645 | -79.68778 | 6005 ft | 243 kts | 190° |
| 2026-05-06 08:22 | 36.31979 | -79.68977 | 5764 ft | 241 kts | 191° |
| 2026-05-06 08:22 | 36.30318 | -79.69179 | 5505 ft | 239 kts | 191° |
| 2026-05-06 08:23 | 36.28733 | -79.69669 | 5235 ft | 229 kts | 216° |
| 2026-05-06 08:23 | 36.27565 | -79.70982 | 4926 ft | 228 kts | 227° |
| 2026-05-06 08:23 | 36.26461 | -79.72388 | 4745 ft | 223 kts | 225° |
| 2026-05-06 08:23 | 36.25382 | -79.73747 | 4588 ft | 218 kts | 225° |
| 2026-05-06 08:24 | 36.24342 | -79.75065 | 4406 ft | 213 kts | 225° |
| 2026-05-06 08:24 | 36.23306 | -79.76383 | 4222 ft | 210 kts | 225° |
| 2026-05-06 08:24 | 36.22295 | -79.77673 | 3991 ft | 208 kts | 225° |
| 2026-05-06 08:24 | 36.21309 | -79.78932 | 3776 ft | 200 kts | 225° |
| 2026-05-06 08:25 | 36.20342 | -79.80166 | 3497 ft | 195 kts | 224° |
| 2026-05-06 08:25 | 36.19402 | -79.81365 | 3233 ft | 191 kts | 224° |
| 2026-05-06 08:25 | 36.18489 | -79.82529 | 2979 ft | 182 kts | 225° |
| 2026-05-06 08:25 | 36.17648 | -79.83602 | 2720 ft | 167 kts | 224° |
| 2026-05-06 08:26 | 36.16870 | -79.84593 | 2489 ft | 157 kts | 224° |
| 2026-05-06 08:26 | 36.16140 | -79.85524 | 2321 ft | 143 kts | 223° |
| 2026-05-06 08:26 | 36.15487 | -79.86357 | 2140 ft | 130 kts | 223° |
| 2026-05-06 08:26 | 36.14855 | -79.87158 | 1961 ft | 129 kts | 223° |
| 2026-05-06 08:27 | 36.14207 | -79.87981 | 1816 ft | 133 kts | 223° |
| 2026-05-06 08:27 | 36.13554 | -79.88812 | 1636 ft | 136 kts | 223° |
| 2026-05-06 08:27 | 36.12891 | -79.89649 | 1437 ft | 138 kts | 222° |
| 2026-05-06 08:27 | 36.12208 | -79.90498 | 1268 ft | 141 kts | 223° |
| 2026-05-06 08:28 | 36.11520 | -79.91389 | 1077 ft | 143 kts | 223° |
| 2026-05-06 08:28 | 36.10823 | -79.92275 | 899 ft | 147 kts | 224° |
| 2026-05-06 08:28 | 36.10204 | -79.93065 | 895 ft | 87 kts | 226° |
| 2026-05-06 08:28 | 36.10001 | -79.93328 | 896 ft | 10 kts | 245° |
| 2026-05-06 08:29 | 36.10033 | -79.93399 | 896 ft | 11 kts | 315° |
| 2026-05-06 08:29 | 36.10092 | -79.93469 | 896 ft | 10 kts | 316° |
| 2026-05-06 08:29 | 36.10129 | -79.93471 | 896 ft | 6 kts | 35° |
| 2026-05-06 08:29 | 36.10182 | -79.93410 | 895 ft | 13 kts | 46° |
| 2026-05-06 08:30 | 36.10259 | -79.93309 | 894 ft | 18 kts | 46° |
| 2026-05-06 08:30 | 36.10363 | -79.93178 | 893 ft | 23 kts | 45° |
| 2026-05-06 08:30 | 36.10485 | -79.93024 | 893 ft | 26 kts | 46° |
| 2026-05-06 08:30 | 36.10616 | -79.92855 | 892 ft | 28 kts | 46° |
| 2026-05-06 08:31 | 36.10756 | -79.92676 | 892 ft | 27 kts | 46° |
| 2026-05-06 08:31 | 36.10859 | -79.92545 | 892 ft | 19 kts | 46° |
| 2026-05-06 08:31 | 36.10921 | -79.92481 | 892 ft | 10 kts | 15° |
| 2026-05-06 08:31 | 36.10979 | -79.92515 | 893 ft | 8 kts | 343° |
| 2026-05-06 08:32 | 36.11033 | -79.92511 | 893 ft | 6 kts | 342° |
| 2026-05-06 08:32 | 36.11060 | -79.92534 | 895 ft | 3 kts | 319° |
| 2026-05-06 08:32 | 36.11068 | -79.92543 | 895 ft | 0 kts | 317° |